Terminal Aerodrome Forecast
Issued by NWS

Home | Current Version | Previous Version | Text Only | Print | Product List | Glossary On
Versions: 1 2 3 4 5 6 7 8 9 10 11 12 13 14
000
FTUS46 KMTR 052300
TAFMRY
TAF
KMRY 052338Z 0600/0624 25011KT P6SM SCT024
      TEMPO 0600/0604 BKN024
     FM060400 23006KT P6SM OVC024
     FM060700 23006KT P6SM OVC015
     FM061800 26013G18KT P6SM FEW015 SCT200=

USA.gov is the U.S. government's official web portal to all federal, state and local government web resources and services.